createdAt,value
2023-05-24T00:00:31.970Z,422.0769
2023-05-24T00:01:33.015Z,420.6154
2023-05-24T00:02:34.148Z,419.0000
2023-05-24T00:03:35.429Z,418.5385
2023-05-24T00:04:36.394Z,417.5385
2023-05-24T00:05:37.408Z,417.6923
2023-05-24T00:06:38.474Z,417.3077
2023-05-24T00:07:39.593Z,412.2308
2023-05-24T00:08:40.670Z,410.7692
2023-05-24T00:09:41.779Z,409.0769
2023-05-24T00:10:43.058Z,411.8462
2023-05-24T00:11:43.957Z,413.8462
2023-05-24T00:12:45.061Z,412.8462
2023-05-24T00:13:46.156Z,416.7692
2023-05-24T00:14:47.315Z,415.2308
2023-05-24T00:15:48.358Z,418.6923
2023-05-24T00:16:49.473Z,415.1538
2023-05-24T00:17:50.606Z,416.2308
2023-05-24T00:18:51.619Z,423.5385
2023-05-24T00:19:52.772Z,422.6154
2023-05-24T00:20:53.825Z,415.3077
2023-05-24T00:21:54.896Z,414.0000
2023-05-24T00:22:56.010Z,413.3846
2023-05-24T00:23:57.088Z,415.7692
2023-05-24T00:24:58.181Z,412.2308
2023-05-24T00:25:59.322Z,411.9231
2023-05-24T00:27:00.386Z,414.6154
2023-05-24T00:28:01.486Z,415.5385
2023-05-24T00:29:02.570Z,414.0769
2023-05-24T00:30:03.668Z,416.1538
2023-05-24T00:31:04.763Z,413.2308
2023-05-24T00:32:05.908Z,418.6154
2023-05-24T00:33:06.983Z,418.3077
2023-05-24T00:34:08.033Z,423.0000
2023-05-24T00:35:09.132Z,422.8462
2023-05-24T00:36:10.231Z,419.4615
2023-05-24T00:37:11.309Z,416.9231
2023-05-24T00:38:12.400Z,412.9231
2023-05-24T00:39:13.498Z,411.2308
2023-05-24T00:40:14.574Z,409.7692
2023-05-24T00:41:15.684Z,407.8462
2023-05-24T00:42:16.770Z,401.3077
2023-05-24T00:43:17.879Z,406.8462
2023-05-24T00:44:19.010Z,406.8462
2023-05-24T00:45:20.047Z,405.1538
2023-05-24T00:46:21.176Z,406.7692
2023-05-24T00:47:22.271Z,405.8462
2023-05-24T00:48:23.326Z,411.0769
2023-05-24T00:49:24.429Z,406.0769
2023-05-24T00:50:25.555Z,413.5385
2023-05-24T00:51:26.610Z,415.0769
2023-05-24T00:52:27.710Z,412.1538
2023-05-24T00:53:28.794Z,411.3077
2023-05-24T00:54:29.867Z,416.9231
2023-05-24T00:55:30.977Z,418.9231
2023-05-24T00:56:32.101Z,421.2308
2023-05-24T00:57:33.149Z,420.3077
2023-05-24T00:58:34.253Z,416.7692
2023-05-24T00:59:35.367Z,418.1538
2023-05-24T01:00:36.449Z,419.6923
2023-05-24T01:01:37.656Z,415.9231
2023-05-24T01:02:38.773Z,414.2308
2023-05-24T01:03:39.872Z,416.3077
2023-05-24T01:04:40.813Z,414.4615
2023-05-24T01:05:41.939Z,415.0769
2023-05-24T01:06:43.034Z,416.0769
2023-05-24T01:07:44.110Z,413.1538
2023-05-24T01:08:45.215Z,413.9231
2023-05-24T01:09:46.304Z,415.0000
2023-05-24T01:10:47.398Z,418.2308
2023-05-24T01:11:48.502Z,416.4615
2023-05-24T01:12:49.583Z,414.6923
2023-05-24T01:13:50.685Z,417.5385
2023-05-24T01:14:51.762Z,417.4615
2023-05-24T01:15:52.903Z,412.6923
2023-05-24T01:16:53.973Z,416.0000
2023-05-24T01:17:55.103Z,413.7692
2023-05-24T01:18:56.141Z,415.1538
2023-05-24T01:19:57.316Z,416.1538
2023-05-24T01:20:58.341Z,414.3846
2023-05-24T01:21:59.473Z,411.8462
2023-05-24T01:23:00.532Z,415.3846
2023-05-24T01:24:01.652Z,414.7692
2023-05-24T01:25:02.739Z,414.9231
2023-05-24T01:26:03.817Z,413.8462
2023-05-24T01:27:04.904Z,411.1538
2023-05-24T01:28:05.999Z,412.6154
2023-05-24T01:29:07.134Z,411.2308
2023-05-24T01:30:08.176Z,411.7692
2023-05-24T01:31:09.274Z,413.1538
2023-05-24T01:32:10.424Z,412.3077
2023-05-24T01:33:11.457Z,411.6154
2023-05-24T01:34:12.553Z,414.3077
2023-05-24T01:35:13.673Z,409.9231
2023-05-24T01:36:14.745Z,411.3846
2023-05-24T01:37:15.843Z,410.1538
2023-05-24T01:38:16.946Z,407.7692
2023-05-24T01:39:18.022Z,407.5385
2023-05-24T01:40:19.116Z,409.2308
2023-05-24T01:41:20.219Z,413.4615
2023-05-24T01:42:21.325Z,415.6154
2023-05-24T01:43:22.431Z,414.6923
2023-05-24T01:44:23.508Z,411.9231
2023-05-24T01:45:24.604Z,415.4615
2023-05-24T01:46:25.704Z,414.2308
2023-05-24T01:47:26.835Z,414.2308
2023-05-24T01:48:27.873Z,419.2308
2023-05-24T01:49:28.956Z,415.0769
2023-05-24T01:50:30.045Z,415.4615
2023-05-24T01:51:31.146Z,416.0000
2023-05-24T01:52:32.328Z,415.5385
2023-05-24T01:53:33.342Z,416.2308
2023-05-24T01:54:34.423Z,412.6923
2023-05-24T01:55:35.504Z,416.1538
2023-05-24T01:56:36.621Z,425.2308
2023-05-24T01:57:37.699Z,427.3846
2023-05-24T01:58:38.806Z,420.0000
2023-05-24T01:59:39.880Z,423.3846
2023-05-24T02:00:41.273Z,423.1538
2023-05-24T02:01:42.135Z,420.9231
2023-05-24T02:02:43.343Z,420.3077
2023-05-24T02:03:44.388Z,422.9231
2023-05-24T02:04:45.368Z,417.6154
2023-05-24T02:05:54.026Z,420.2308
2023-05-24T02:06:47.557Z,420.5833
2023-05-24T02:07:48.730Z,418.3846
2023-05-24T02:08:49.807Z,416.6923
2023-05-24T02:09:50.895Z,420.1538
2023-05-24T02:10:51.991Z,420.2308
2023-05-24T02:11:53.069Z,419.3077
2023-05-24T02:12:54.202Z,415.6923
2023-05-24T02:13:55.253Z,416.8462
2023-05-24T02:14:56.352Z,418.5385
2023-05-24T02:15:57.445Z,419.0000
2023-05-24T02:16:58.659Z,421.3077
2023-05-24T02:17:59.652Z,423.1538
2023-05-24T02:19:00.708Z,421.6923
2023-05-24T02:20:01.861Z,420.0769
2023-05-24T02:21:02.933Z,421.5385
2023-05-24T02:22:04.010Z,419.8462
2023-05-24T02:23:05.109Z,420.5385
2023-05-24T02:24:06.202Z,425.0000
2023-05-24T02:25:07.285Z,429.1538
2023-05-24T02:26:08.384Z,418.6923
2023-05-24T02:27:09.451Z,419.8462
2023-05-24T02:28:10.581Z,424.2308
2023-05-24T02:29:11.661Z,425.7692
2023-05-24T02:30:12.737Z,426.9231
2023-05-24T02:31:13.851Z,422.3846
2023-05-24T02:32:14.980Z,418.6154
2023-05-24T02:33:16.083Z,415.5385
2023-05-24T02:34:17.108Z,416.1538
2023-05-24T02:35:18.212Z,421.7692
2023-05-24T02:36:19.311Z,424.3077
2023-05-24T02:37:20.400Z,422.1538
2023-05-24T02:38:21.494Z,422.4615
2023-05-24T02:39:22.611Z,421.6923
2023-05-24T02:40:23.694Z,422.6923
2023-05-24T02:41:24.778Z,425.6154
2023-05-24T02:42:25.856Z,432.3846
2023-05-24T02:43:26.978Z,429.3846
2023-05-24T02:44:28.055Z,428.8462
2023-05-24T02:45:29.158Z,429.6923
2023-05-24T02:46:30.282Z,429.6923
2023-05-24T02:47:31.424Z,426.6154
2023-05-24T02:48:32.447Z,422.2308
2023-05-24T02:49:33.527Z,422.7692
2023-05-24T02:50:34.649Z,425.3846
2023-05-24T02:51:35.726Z,426.8462
2023-05-24T02:52:36.798Z,423.3846
2023-05-24T02:53:37.929Z,419.6154
2023-05-24T02:54:39.007Z,418.9231
2023-05-24T02:55:40.103Z,421.0000
2023-05-24T02:56:41.192Z,420.5385
2023-05-24T02:57:42.283Z,421.4615
2023-05-24T02:58:43.402Z,417.6154
2023-05-24T02:59:44.492Z,417.6923
2023-05-24T03:00:45.566Z,421.8462
2023-05-24T03:01:46.732Z,425.3846
2023-05-24T03:02:48.135Z,417.2308
2023-05-24T03:03:48.960Z,424.3077
2023-05-24T03:04:49.976Z,426.0769
2023-05-24T03:05:51.052Z,427.0769
2023-05-24T03:06:52.130Z,430.5385
2023-05-24T03:07:53.250Z,432.9231
2023-05-24T03:08:54.344Z,432.2308
2023-05-24T03:09:55.409Z,426.9231
2023-05-24T03:10:56.509Z,427.1538
2023-05-24T03:11:57.630Z,427.2308
2023-05-24T03:12:58.701Z,427.6923
2023-05-24T03:13:59.791Z,426.1538
2023-05-24T03:15:00.913Z,423.6923
2023-05-24T03:16:02.034Z,418.7692
2023-05-24T03:17:03.083Z,418.4615
2023-05-24T03:18:04.229Z,417.6923
2023-05-24T03:19:06.480Z,416.3846
2023-05-24T03:20:06.401Z,420.0769
2023-05-24T03:21:07.484Z,416.3077
2023-05-24T03:22:08.559Z,419.3077
2023-05-24T03:23:09.669Z,419.5385
2023-05-24T03:24:10.905Z,417.1538
2023-05-24T03:25:11.831Z,417.6154
2023-05-24T03:26:12.953Z,415.7692
2023-05-24T03:27:14.023Z,419.1538
2023-05-24T03:28:15.158Z,420.3077
2023-05-24T03:29:16.237Z,421.0769
2023-05-24T03:30:17.299Z,421.9231
2023-05-24T03:31:18.426Z,421.5385
2023-05-24T03:32:19.490Z,423.0769
2023-05-24T03:33:20.587Z,416.9231
2023-05-24T03:34:21.719Z,417.2308
2023-05-24T03:35:22.792Z,424.0769
2023-05-24T03:36:23.882Z,430.3077
2023-05-24T03:37:24.967Z,432.7692
2023-05-24T03:38:26.054Z,429.1538
2023-05-24T03:39:27.172Z,430.6154
2023-05-24T03:40:28.258Z,432.0000
2023-05-24T03:41:29.385Z,432.2308
2023-05-24T03:42:30.455Z,428.1538
2023-05-24T03:43:31.530Z,427.5385
2023-05-24T03:44:32.653Z,430.3846
2023-05-24T03:45:39.298Z,427.8462
2023-05-24T03:46:35.888Z,429.2308
2023-05-24T03:47:35.945Z,428.0769
2023-05-24T03:48:37.006Z,431.8462
2023-05-24T03:49:38.154Z,429.0769
2023-05-24T03:50:39.192Z,428.0000
2023-05-24T03:51:40.304Z,426.4615
2023-05-24T03:52:41.405Z,425.5385
2023-05-24T03:53:42.489Z,425.8462
2023-05-24T03:54:43.604Z,425.4615
2023-05-24T03:55:44.700Z,422.3077
2023-05-24T03:56:45.788Z,423.5385
2023-05-24T03:57:46.871Z,421.4615
2023-05-24T03:58:47.962Z,423.0000
2023-05-24T03:59:49.069Z,421.5385
2023-05-24T04:00:50.150Z,423.3846
2023-05-24T04:01:51.268Z,422.9231
2023-05-24T04:02:52.556Z,426.2308
2023-05-24T04:03:53.445Z,427.0000
2023-05-24T04:04:54.552Z,421.0769
2023-05-24T04:05:55.609Z,423.7692
2023-05-24T04:06:56.723Z,426.6923
2023-05-24T04:07:57.812Z,427.6154
2023-05-24T04:08:58.895Z,426.0769
2023-05-24T04:10:00.038Z,426.3077
2023-05-24T04:11:01.132Z,420.5385
2023-05-24T04:12:02.190Z,415.5385
2023-05-24T04:13:03.298Z,414.3846
2023-05-24T04:14:04.370Z,415.8462
2023-05-24T04:15:05.484Z,418.3077
2023-05-24T04:16:06.575Z,419.0000
2023-05-24T04:17:07.845Z,417.9231
2023-05-24T04:18:08.978Z,420.0769
2023-05-24T04:19:09.874Z,414.3846
2023-05-24T04:20:11.002Z,414.8462
2023-05-24T04:21:12.039Z,419.2308
2023-05-24T04:22:13.138Z,422.0769
2023-05-24T04:23:14.240Z,420.4615
2023-05-24T04:24:15.332Z,417.6154
2023-05-24T04:25:16.432Z,415.6923
2023-05-24T04:26:17.562Z,416.8462
2023-05-24T04:27:18.617Z,418.3846
2023-05-24T04:28:19.722Z,417.3077
2023-05-24T04:29:20.804Z,419.8462
2023-05-24T04:30:21.930Z,417.0769
2023-05-24T04:31:23.063Z,413.8462
2023-05-24T04:32:24.138Z,420.8462
2023-05-24T04:33:25.221Z,425.9231
2023-05-24T04:34:26.307Z,426.8462
2023-05-24T04:35:27.409Z,427.5385
2023-05-24T04:36:28.493Z,421.8462
2023-05-24T04:37:29.603Z,423.3846
2023-05-24T04:38:30.689Z,422.6923
2023-05-24T04:39:31.802Z,425.0769
2023-05-24T04:40:32.931Z,428.1538
2023-05-24T04:41:33.998Z,424.4615
2023-05-24T04:42:35.084Z,423.1538
2023-05-24T04:43:36.177Z,418.6923
2023-05-24T04:44:37.304Z,420.9231
2023-05-24T04:45:38.494Z,426.3077
2023-05-24T04:46:39.520Z,423.4615
2023-05-24T04:47:40.604Z,425.6154
2023-05-24T04:48:41.679Z,426.7692
2023-05-24T04:49:42.761Z,430.5385
2023-05-24T04:50:44.092Z,427.7692
2023-05-24T04:51:45.021Z,426.6154
2023-05-24T04:52:46.092Z,429.8462
2023-05-24T04:53:47.168Z,429.7692
2023-05-24T04:54:48.264Z,431.3846
2023-05-24T04:55:49.403Z,431.3077
2023-05-24T04:56:50.463Z,429.6154
2023-05-24T04:57:51.554Z,429.3846
2023-05-24T04:58:52.664Z,433.6923
2023-05-24T04:59:53.757Z,433.9231
2023-05-24T05:00:54.885Z,432.0000
2023-05-24T05:01:56.008Z,429.9231
2023-05-24T05:02:57.134Z,428.0769
2023-05-24T05:03:58.187Z,430.6923
2023-05-24T05:04:59.270Z,431.3077
2023-05-24T05:06:00.352Z,430.0769
2023-05-24T05:07:01.437Z,428.4615
2023-05-24T05:08:02.541Z,427.6923
2023-05-24T05:09:03.648Z,424.3846
2023-05-24T05:10:04.810Z,425.0769
2023-05-24T05:11:05.848Z,427.1538
2023-05-24T05:12:06.930Z,426.7692
2023-05-24T05:13:08.029Z,432.6923
2023-05-24T05:14:09.129Z,432.3077
2023-05-24T05:15:10.211Z,426.8462
2023-05-24T05:16:11.353Z,424.2308
2023-05-24T05:17:12.408Z,429.2308
2023-05-24T05:18:13.567Z,429.4615
2023-05-24T05:19:14.618Z,428.8462
2023-05-24T05:20:15.769Z,426.7692
2023-05-24T05:21:16.829Z,424.5385
2023-05-24T05:22:17.904Z,424.6923
2023-05-24T05:23:19.010Z,428.1538
2023-05-24T05:24:20.094Z,429.5385
2023-05-24T05:25:21.245Z,428.3077
2023-05-24T05:26:22.302Z,429.4615
2023-05-24T05:27:23.411Z,432.0000
2023-05-24T05:28:24.506Z,431.5385
2023-05-24T05:29:25.611Z,429.1538
2023-05-24T05:30:26.705Z,429.6923
2023-05-24T05:31:27.819Z,427.4615
2023-05-24T05:32:28.949Z,423.0000
2023-05-24T05:33:30.063Z,425.9231
2023-05-24T05:34:31.093Z,431.0769
2023-05-24T05:35:32.209Z,428.7692
2023-05-24T05:36:33.323Z,430.2308
2023-05-24T05:37:34.405Z,431.2308
2023-05-24T05:38:35.489Z,432.5385
2023-05-24T05:39:36.606Z,434.9231
2023-05-24T05:40:37.693Z,433.9231
2023-05-24T05:41:38.804Z,431.4615
2023-05-24T05:42:39.896Z,434.5385
2023-05-24T05:43:40.983Z,433.6923
2023-05-24T05:44:42.080Z,434.2308
2023-05-24T05:45:43.183Z,434.5385
2023-05-24T05:46:44.260Z,435.9231
2023-05-24T05:47:45.391Z,435.6923
2023-05-24T05:48:46.668Z,437.6154
2023-05-24T05:49:47.579Z,435.8462
2023-05-24T05:50:48.668Z,435.7692
2023-05-24T05:51:49.783Z,437.3077
2023-05-24T05:52:50.853Z,436.3846
2023-05-24T05:53:51.953Z,436.7692
2023-05-24T05:54:53.061Z,438.1538
2023-05-24T05:55:54.131Z,439.3077
2023-05-24T05:56:55.253Z,441.3846
2023-05-24T05:57:56.341Z,441.6154
2023-05-24T05:58:57.432Z,441.8462
2023-05-24T05:59:58.552Z,433.8462
2023-05-24T06:00:59.668Z,436.7692
2023-05-24T06:02:00.766Z,440.8462
2023-05-24T06:03:01.877Z,442.2308
2023-05-24T06:04:02.995Z,440.2308
2023-05-24T06:05:04.010Z,439.8462
2023-05-24T06:06:05.109Z,440.2308
2023-05-24T06:07:06.195Z,440.3846
2023-05-24T06:08:07.390Z,439.8462
2023-05-24T06:09:08.486Z,438.7692
2023-05-24T06:10:09.580Z,436.4615
2023-05-24T06:11:10.672Z,436.2308
2023-05-24T06:12:11.782Z,441.0769
2023-05-24T06:13:12.860Z,438.1538
2023-05-24T06:14:13.960Z,438.9231
2023-05-24T06:15:15.049Z,441.2308
2023-05-24T06:16:16.143Z,437.4615
2023-05-24T06:17:17.248Z,436.1538
2023-05-24T06:18:18.334Z,437.7692
2023-05-24T06:19:19.444Z,439.3077
2023-05-24T06:20:20.642Z,442.2308
2023-05-24T06:21:21.618Z,443.7692
2023-05-24T06:22:22.723Z,440.3077
2023-05-24T06:23:23.809Z,438.1538
2023-05-24T06:24:24.920Z,436.8462
2023-05-24T06:25:26.018Z,434.3077
2023-05-24T06:26:27.141Z,430.0769
2023-05-24T06:27:28.225Z,432.0769
2023-05-24T06:28:29.294Z,437.0000
2023-05-24T06:29:30.371Z,435.0769
2023-05-24T06:30:31.673Z,435.6923
2023-05-24T06:31:32.572Z,435.3077
2023-05-24T06:32:33.691Z,437.0000
2023-05-24T06:33:37.678Z,438.4615
2023-05-24T06:34:35.846Z,436.4615
2023-05-24T06:35:36.954Z,434.6923
2023-05-24T06:36:38.049Z,437.8462
2023-05-24T06:37:39.135Z,439.7692
2023-05-24T06:38:40.240Z,440.3077
2023-05-24T06:39:41.299Z,442.4615
2023-05-24T06:40:42.510Z,439.5385
2023-05-24T06:41:43.498Z,441.6923
2023-05-24T06:42:44.595Z,440.5385
2023-05-24T06:43:45.678Z,437.1538
2023-05-24T06:44:46.777Z,435.5385
2023-05-24T06:45:47.884Z,435.6923
2023-05-24T06:46:48.997Z,434.5385
2023-05-24T06:47:50.149Z,434.4615
2023-05-24T06:48:51.300Z,432.7692
2023-05-24T06:49:52.288Z,432.0769
2023-05-24T06:50:53.377Z,434.3846
2023-05-24T06:51:54.459Z,432.6154
2023-05-24T06:52:55.563Z,432.6923
2023-05-24T06:53:56.676Z,433.7692
2023-05-24T06:54:57.759Z,436.5385
2023-05-24T06:55:58.855Z,433.8462
2023-05-24T06:56:59.956Z,436.2308
2023-05-24T06:58:01.082Z,434.6923
2023-05-24T06:59:02.172Z,434.2308
2023-05-24T07:00:03.263Z,432.3846
2023-05-24T07:01:04.378Z,432.5385
2023-05-24T07:02:05.452Z,432.8462
2023-05-24T07:03:06.608Z,432.3077
2023-05-24T07:04:07.668Z,431.9231
2023-05-24T07:05:08.740Z,432.6923
2023-05-24T07:06:09.838Z,432.5385
2023-05-24T07:07:10.931Z,433.2308
2023-05-24T07:08:12.051Z,432.6923
2023-05-24T07:09:13.118Z,432.4615
2023-05-24T07:10:14.209Z,433.7692
2023-05-24T07:11:15.324Z,432.5385
2023-05-24T07:12:16.417Z,432.5385
2023-05-24T07:13:17.509Z,434.6154
2023-05-24T07:14:18.602Z,435.0769
2023-05-24T07:15:19.707Z,432.6154
2023-05-24T07:16:20.811Z,432.3077
2023-05-24T07:17:21.984Z,430.3846
2023-05-24T07:18:22.983Z,429.0000
2023-05-24T07:19:24.168Z,426.3077
2023-05-24T07:20:25.307Z,425.4615
2023-05-24T07:21:26.257Z,426.4615
2023-05-24T07:22:27.349Z,425.5385
2023-05-24T07:23:28.488Z,425.9231
2023-05-24T07:24:29.573Z,424.3846
2023-05-24T07:25:30.644Z,425.6923
2023-05-24T07:26:31.738Z,430.0000
2023-05-24T07:27:32.818Z,429.9231
2023-05-24T07:28:33.958Z,428.3846
2023-05-24T07:29:35.020Z,431.5385
2023-05-24T07:30:36.120Z,424.6923
2023-05-24T07:31:37.238Z,429.4615
2023-05-24T07:32:38.554Z,429.3846
2023-05-24T07:33:39.473Z,429.2308
2023-05-24T07:34:40.495Z,429.9231
2023-05-24T07:35:41.579Z,429.9231
2023-05-24T07:36:42.666Z,429.9231
2023-05-24T07:37:44.595Z,426.3846
2023-05-24T07:38:44.866Z,426.2308
2023-05-24T07:39:45.963Z,425.7692
2023-05-24T07:40:47.056Z,429.5385
2023-05-24T07:41:48.165Z,436.7692
2023-05-24T07:42:49.256Z,434.9231
2023-05-24T07:43:50.349Z,434.3846
2023-05-24T07:44:51.434Z,432.7692
2023-05-24T07:45:52.517Z,434.3077
2023-05-24T07:46:53.643Z,439.1538
2023-05-24T07:47:56.810Z,435.4615
2023-05-24T07:48:55.815Z,432.6154
2023-05-24T07:49:56.880Z,431.6154
2023-05-24T07:50:57.981Z,431.5385
2023-05-24T07:51:59.074Z,433.0000
2023-05-24T07:53:00.162Z,431.0000
2023-05-24T07:54:01.289Z,430.3846
2023-05-24T07:55:02.365Z,433.7692
2023-05-24T07:56:03.465Z,431.0000
2023-05-24T07:57:06.618Z,429.0769
2023-05-24T07:58:05.673Z,430.4615
2023-05-24T07:59:06.730Z,431.0000
2023-05-24T08:00:07.821Z,431.2308
2023-05-24T08:01:08.949Z,431.2308
2023-05-24T08:02:10.021Z,428.4615
2023-05-24T08:03:11.340Z,425.7692
2023-05-24T08:04:12.209Z,424.3077
2023-05-24T08:05:13.313Z,427.5385
2023-05-24T08:06:14.389Z,425.3846
2023-05-24T08:07:15.525Z,427.4615
2023-05-24T08:08:16.568Z,430.5385
2023-05-24T08:09:17.692Z,433.9231
2023-05-24T08:10:18.815Z,434.9231
2023-05-24T08:11:19.882Z,436.1538
2023-05-24T08:12:20.941Z,435.4615
2023-05-24T08:13:22.048Z,434.3846
2023-05-24T08:14:23.147Z,434.0000
2023-05-24T08:15:24.244Z,433.0769
2023-05-24T08:16:25.366Z,430.4615
2023-05-24T08:17:26.418Z,429.8462
2023-05-24T08:18:27.510Z,428.6154
2023-05-24T08:19:28.606Z,425.7692
2023-05-24T08:20:29.741Z,424.3846
2023-05-24T08:21:30.771Z,425.6154
2023-05-24T08:22:31.869Z,425.9231
2023-05-24T08:23:32.957Z,427.0769
2023-05-24T08:24:34.058Z,428.0000
2023-05-24T08:25:35.166Z,424.6923
2023-05-24T08:26:36.241Z,427.6154
2023-05-24T08:27:37.328Z,425.0000
2023-05-24T08:28:38.552Z,424.3846
2023-05-24T08:29:39.527Z,426.3077
2023-05-24T08:30:40.618Z,426.7692
2023-05-24T08:31:41.767Z,426.1538
2023-05-24T08:32:42.809Z,425.2308
2023-05-24T08:33:43.900Z,426.0000
2023-05-24T08:34:45.004Z,425.1538
2023-05-24T08:35:46.073Z,424.6154
2023-05-24T08:36:47.197Z,424.3846
2023-05-24T08:37:48.371Z,425.5385
2023-05-24T08:38:49.361Z,426.6154
2023-05-24T08:39:50.458Z,424.6923
2023-05-24T08:40:51.569Z,424.9231
2023-05-24T08:42:08.102Z,428.1538
2023-05-24T08:42:54.712Z,431.4615
2023-05-24T08:43:54.828Z,427.7692
2023-05-24T08:44:55.923Z,425.0000
2023-05-24T08:45:57.031Z,424.2308
2023-05-24T08:46:58.182Z,424.0000
2023-05-24T08:47:59.313Z,427.3077
2023-05-24T08:49:00.310Z,425.6923
2023-05-24T08:50:01.380Z,424.1538
2023-05-24T08:51:02.469Z,426.2308
2023-05-24T08:52:03.559Z,424.1538
2023-05-24T08:53:04.639Z,424.0000
2023-05-24T08:54:05.730Z,421.3077
2023-05-24T08:55:06.841Z,424.2308
2023-05-24T08:56:07.938Z,426.0000
2023-05-24T08:57:09.020Z,428.3077
2023-05-24T08:58:10.112Z,429.3077
2023-05-24T08:59:11.191Z,431.7692
2023-05-24T09:00:12.277Z,433.8462
2023-05-24T09:01:13.410Z,435.3846
2023-05-24T09:02:14.517Z,432.6923
2023-05-24T09:03:15.699Z,434.6923
2023-05-24T09:04:16.691Z,436.6154
2023-05-24T09:05:17.756Z,434.9231
2023-05-24T09:06:18.881Z,433.0769
2023-05-24T09:07:19.942Z,433.3846
2023-05-24T09:08:21.037Z,430.8462
2023-05-24T09:09:22.109Z,429.5385
2023-05-24T09:10:23.223Z,428.6923
2023-05-24T09:11:24.317Z,431.0000
2023-05-24T09:12:36.322Z,431.4615
2023-05-24T09:13:27.492Z,430.6923
2023-05-24T09:14:27.600Z,430.3846
2023-05-24T09:15:28.695Z,428.2308
2023-05-24T09:16:29.827Z,427.0000
2023-05-24T09:17:33.283Z,426.6154
2023-05-24T09:18:31.955Z,429.8462
2023-05-24T09:19:33.044Z,431.4615
2023-05-24T09:20:34.174Z,432.6154
2023-05-24T09:21:35.251Z,430.2308
2023-05-24T09:22:38.798Z,429.2308
2023-05-24T09:23:37.430Z,429.1538
2023-05-24T09:24:38.502Z,430.0769
2023-05-24T09:25:39.613Z,431.9231
2023-05-24T09:26:40.692Z,434.0000
2023-05-24T09:27:41.815Z,435.9231
2023-05-24T09:28:42.888Z,434.9231
2023-05-24T09:29:43.996Z,435.1538
2023-05-24T09:30:45.320Z,432.9231
2023-05-24T09:31:46.186Z,433.2308
2023-05-24T09:32:47.275Z,435.6154
2023-05-24T09:33:48.354Z,436.1538
2023-05-24T09:34:49.462Z,435.5385
2023-05-24T09:35:50.560Z,437.0769
2023-05-24T09:36:51.626Z,436.3846
2023-05-24T09:37:52.696Z,433.2308
2023-05-24T09:38:53.798Z,436.9231
2023-05-24T09:39:54.903Z,439.2308
2023-05-24T09:40:55.996Z,434.2308
2023-05-24T09:41:57.084Z,434.5385
2023-05-24T09:42:58.190Z,433.9231
2023-05-24T09:43:59.276Z,436.6154
2023-05-24T09:45:00.361Z,440.5385
2023-05-24T09:46:01.456Z,441.6154
2023-05-24T09:47:02.628Z,441.5385
2023-05-24T09:48:03.716Z,439.0769
2023-05-24T09:49:04.770Z,438.0769
2023-05-24T09:50:05.861Z,438.7692
2023-05-24T09:51:06.990Z,437.3846
2023-05-24T09:52:08.137Z,434.2308
2023-05-24T09:53:09.130Z,432.6154
2023-05-24T09:54:10.227Z,432.7692
2023-05-24T09:55:11.318Z,435.4615
2023-05-24T09:56:12.422Z,438.2308
2023-05-24T09:57:13.513Z,438.7692
2023-05-24T09:58:14.618Z,440.9231
2023-05-24T09:59:15.681Z,441.6923
2023-05-24T10:00:16.986Z,444.0000
2023-05-24T10:01:17.933Z,444.0000
2023-05-24T10:02:18.950Z,443.3846
2023-05-24T10:03:20.127Z,442.4615
2023-05-24T10:04:21.222Z,442.3077
2023-05-24T10:05:22.266Z,441.5385
2023-05-24T10:06:23.346Z,441.0000
2023-05-24T10:07:24.439Z,441.0769
2023-05-24T10:08:25.604Z,430.8462
2023-05-24T10:09:26.688Z,436.6923
2023-05-24T10:10:27.770Z,437.1538
2023-05-24T10:11:28.886Z,436.0769
2023-05-24T10:12:29.972Z,435.9231
2023-05-24T10:13:31.075Z,435.3846
2023-05-24T10:14:32.192Z,433.5385
2023-05-24T10:15:33.272Z,432.0769
2023-05-24T10:16:34.421Z,433.1538
2023-05-24T10:17:35.435Z,432.2308
2023-05-24T10:18:36.546Z,433.6923
2023-05-24T10:19:37.651Z,436.8462
2023-05-24T10:20:38.780Z,435.7692
2023-05-24T10:21:39.853Z,434.7692
2023-05-24T10:22:40.919Z,435.6923
2023-05-24T10:23:42.015Z,435.8462
2023-05-24T10:24:43.094Z,437.8462
2023-05-24T10:25:44.166Z,437.4615
2023-05-24T10:26:45.284Z,437.8462
2023-05-24T10:27:46.368Z,440.0000
2023-05-24T10:28:47.453Z,437.3077
2023-05-24T10:29:48.553Z,439.4615
2023-05-24T10:30:49.687Z,436.3846
2023-05-24T10:31:50.799Z,432.7692
2023-05-24T10:32:51.922Z,431.8462
2023-05-24T10:33:57.144Z,429.9231
2023-05-24T10:34:55.024Z,427.6923
2023-05-24T10:35:55.113Z,427.2308
2023-05-24T10:36:56.192Z,424.4615
2023-05-24T10:37:57.307Z,425.3846
2023-05-24T10:38:58.377Z,425.5385
2023-05-24T10:39:59.488Z,425.3846
2023-05-24T10:41:00.586Z,425.6923
2023-05-24T10:42:01.694Z,425.2308
2023-05-24T10:43:02.771Z,425.6154
2023-05-24T10:45:04.956Z,425.5385
2023-05-24T10:46:06.108Z,424.9231
2023-05-24T10:47:07.168Z,424.1538
2023-05-24T10:48:08.280Z,426.9231
2023-05-24T10:49:09.325Z,423.4615
2023-05-24T10:50:10.461Z,424.8462
2023-05-24T10:51:11.496Z,425.9231
2023-05-24T10:52:12.614Z,426.8462
2023-05-24T10:53:13.751Z,426.3077
2023-05-24T10:54:14.806Z,422.9231
2023-05-24T10:55:15.891Z,424.0000
2023-05-24T10:56:16.971Z,420.0000
2023-05-24T10:57:18.066Z,416.3846
2023-05-24T10:58:19.161Z,419.7692
2023-05-24T10:59:20.268Z,418.0000
2023-05-24T11:00:33.819Z,418.4615
2023-05-24T11:01:23.487Z,419.8462
2023-05-24T11:02:23.648Z,421.8462
2023-05-24T11:03:24.816Z,425.1538
2023-05-24T11:04:25.773Z,427.0769
2023-05-24T11:05:26.914Z,424.0000
2023-05-24T11:06:27.952Z,426.0769
2023-05-24T11:07:29.072Z,424.3846
2023-05-24T11:08:30.129Z,424.8462
2023-05-24T11:09:31.246Z,426.0000
2023-05-24T11:10:32.356Z,426.3846
2023-05-24T11:11:33.441Z,423.7692
2023-05-24T11:12:34.555Z,423.1538
2023-05-24T11:13:35.616Z,424.8462
2023-05-24T11:14:36.717Z,425.3077
2023-05-24T11:15:37.838Z,425.0769
2023-05-24T11:16:39.822Z,425.0769
2023-05-24T11:17:42.149Z,425.5385
2023-05-24T11:18:41.123Z,421.0000
2023-05-24T11:19:42.218Z,424.4615
2023-05-24T11:20:43.808Z,425.4615
2023-05-24T11:21:44.503Z,427.4615
2023-05-24T11:22:45.515Z,429.2308
2023-05-24T11:23:46.610Z,428.9231
2023-05-24T11:24:47.702Z,427.0769
2023-05-24T11:25:48.828Z,428.5385
2023-05-24T11:26:49.889Z,428.0000
2023-05-24T11:27:51.028Z,433.5385
2023-05-24T11:28:52.080Z,431.0769
2023-05-24T11:29:53.168Z,430.1538
2023-05-24T11:30:54.266Z,428.5385
2023-05-24T11:31:55.407Z,427.8462
2023-05-24T11:32:56.535Z,427.0769
2023-05-24T11:33:57.562Z,426.5385
2023-05-24T11:34:58.654Z,425.9231
2023-05-24T11:35:59.759Z,424.8462
2023-05-24T11:37:00.943Z,425.9231
2023-05-24T11:38:01.947Z,424.0000
2023-05-24T11:39:03.019Z,421.8462
2023-05-24T11:40:04.132Z,422.4615
2023-05-24T11:41:05.233Z,422.7692
2023-05-24T11:42:06.317Z,425.3846
2023-05-24T11:43:07.415Z,427.4615
2023-05-24T11:44:08.492Z,428.4615
2023-05-24T11:45:09.577Z,426.9231
2023-05-24T11:46:10.684Z,425.7692
2023-05-24T11:47:11.771Z,426.6923
2023-05-24T11:48:12.917Z,427.1538
2023-05-24T11:49:13.982Z,427.8462
2023-05-24T11:50:15.072Z,427.6923
2023-05-24T11:51:16.129Z,424.2308
2023-05-24T11:52:17.228Z,423.1538
2023-05-24T11:53:18.314Z,422.6154
2023-05-24T11:54:19.397Z,423.8462
2023-05-24T11:55:20.484Z,426.4615
2023-05-24T11:56:21.581Z,429.2308
2023-05-24T11:57:22.691Z,429.3846
2023-05-24T11:58:23.794Z,427.5385